createdAt,value
2019-02-28T00:02:27.474Z,2.70
2019-02-28T00:04:56.197Z,2.60
2019-02-28T00:07:25.207Z,2.60
2019-02-28T00:09:54.215Z,2.60
2019-02-28T00:12:22.985Z,2.60
2019-02-28T00:14:51.819Z,2.60
2019-02-28T00:17:20.579Z,2.60
2019-02-28T00:19:49.626Z,2.60
2019-02-28T00:22:18.400Z,2.60
2019-02-28T00:24:47.210Z,2.60
2019-02-28T00:27:21.002Z,2.60
2019-02-28T00:29:46.677Z,2.60
2019-02-28T00:32:15.443Z,3.00
2019-02-28T00:34:44.514Z,3.10
2019-02-28T00:37:13.236Z,3.40
2019-02-28T00:39:42.227Z,3.60
2019-02-28T00:42:10.966Z,3.70
2019-02-28T00:44:39.690Z,3.80
2019-02-28T00:47:08.456Z,3.80
2019-02-28T00:49:37.178Z,3.80
2019-02-28T00:52:06.129Z,3.70
2019-02-28T00:54:35.343Z,3.60
2019-02-28T00:57:04.080Z,3.40
2019-02-28T00:59:32.856Z,3.30
2019-02-28T01:02:01.576Z,3.30
2019-02-28T01:04:30.897Z,3.30
2019-02-28T01:06:59.982Z,3.20
2019-02-28T01:09:30.227Z,3.20
2019-02-28T01:11:59.452Z,3.10
2019-02-28T01:14:28.454Z,3.00
2019-02-28T01:16:57.215Z,3.00
2019-02-28T01:19:25.983Z,2.90
2019-02-28T01:21:55.374Z,2.90
2019-02-28T01:24:24.892Z,2.90
2019-02-28T01:26:53.634Z,2.80
2019-02-28T01:29:22.370Z,2.80
2019-02-28T01:31:51.137Z,2.80
2019-02-28T01:34:20.090Z,2.70
2019-02-28T01:36:49.586Z,2.70
2019-02-28T01:39:18.416Z,2.70
2019-02-28T01:41:47.183Z,2.70
2019-02-28T01:44:15.967Z,2.70
2019-02-28T01:46:44.711Z,2.80
2019-02-28T01:49:13.739Z,2.80
2019-02-28T01:51:42.483Z,2.80
2019-02-28T01:54:11.707Z,2.70
2019-02-28T01:56:40.483Z,2.80
2019-02-28T01:59:09.480Z,2.70
2019-02-28T02:01:38.206Z,2.80
2019-02-28T02:04:07.195Z,2.70
2019-02-28T02:06:35.938Z,2.70
2019-02-28T02:09:08.066Z,2.70
2019-02-28T02:11:36.705Z,2.70
2019-02-28T02:14:07.529Z,2.80
2019-02-28T02:16:36.162Z,2.80
2019-02-28T02:19:05.010Z,3.20
2019-02-28T02:21:34.836Z,3.80
2019-02-28T02:24:04.505Z,4.20
2019-02-28T02:26:33.283Z,4.50
2019-02-28T02:29:02.034Z,4.60
2019-02-28T02:31:31.317Z,4.90
2019-02-28T02:34:00.535Z,5.00
2019-02-28T02:36:29.426Z,5.20
2019-02-28T02:38:58.300Z,5.50
2019-02-28T02:41:27.221Z,5.70
2019-02-28T02:43:56.326Z,5.90
2019-02-28T02:46:25.213Z,6.10
2019-02-28T02:48:54.065Z,6.20
2019-02-28T02:51:22.921Z,6.50
2019-02-28T02:53:51.793Z,6.90
2019-02-28T02:56:20.899Z,6.90
2019-02-28T02:58:49.702Z,6.90
2019-02-28T03:01:18.508Z,7.00
2019-02-28T03:03:47.331Z,7.10
2019-02-28T03:06:16.366Z,7.20
2019-02-28T03:08:45.460Z,7.30
2019-02-28T03:11:14.350Z,7.40
2019-02-28T03:13:44.244Z,7.40
2019-02-28T03:16:13.305Z,7.50
2019-02-28T03:18:42.221Z,7.60
2019-02-28T03:21:15.102Z,7.60
2019-02-28T03:23:41.595Z,7.70
2019-02-28T03:26:10.721Z,7.80
2019-02-28T03:28:39.511Z,8.10
2019-02-28T03:31:14.449Z,8.20
2019-02-28T03:33:38.881Z,8.30
2019-02-28T03:36:07.949Z,8.30
2019-02-28T03:38:37.021Z,8.30
2019-02-28T03:41:05.865Z,8.20
2019-02-28T03:43:42.711Z,8.20
2019-02-28T03:46:06.357Z,8.20
2019-02-28T03:48:36.344Z,8.20
2019-02-28T03:51:05.219Z,8.20
2019-02-28T03:53:34.064Z,8.20
2019-02-28T03:56:08.986Z,8.20
2019-02-28T03:58:42.883Z,8.20
2019-02-28T04:01:10.209Z,8.10
2019-02-28T04:03:39.144Z,8.10
2019-02-28T04:06:07.917Z,7.90
2019-02-28T04:08:36.700Z,7.90
2019-02-28T04:11:05.568Z,7.80
2019-02-28T04:13:34.477Z,7.60
2019-02-28T04:16:09.035Z,7.60
2019-02-28T04:18:33.902Z,7.50
2019-02-28T04:21:02.782Z,7.40
2019-02-28T04:23:35.961Z,7.20
2019-02-28T04:26:02.086Z,7.20
2019-02-28T04:28:30.990Z,7.10
2019-02-28T04:30:59.798Z,7.00
2019-02-28T04:33:28.670Z,6.90
2019-02-28T04:36:00.688Z,6.70
2019-02-28T04:38:27.944Z,6.70
2019-02-28T04:40:58.799Z,6.60
2019-02-28T04:43:27.378Z,6.70
2019-02-28T04:45:57.637Z,6.50
2019-02-28T04:48:26.738Z,6.40
2019-02-28T04:50:55.544Z,6.40
2019-02-28T04:53:24.578Z,6.40
2019-02-28T04:55:53.376Z,6.30
2019-02-28T04:58:22.338Z,6.30
2019-02-28T05:00:52.801Z,6.20
2019-02-28T05:03:21.890Z,6.20
2019-02-28T05:05:50.758Z,6.20
2019-02-28T05:08:19.942Z,6.40
2019-02-28T05:10:48.864Z,6.60
2019-02-28T05:13:17.659Z,6.70
2019-02-28T05:15:46.997Z,7.00
2019-02-28T05:18:16.409Z,7.20
2019-02-28T05:20:45.980Z,7.30
2019-02-28T05:23:15.004Z,7.50
2019-02-28T05:25:43.829Z,7.60
2019-02-28T05:28:12.952Z,7.70
2019-02-28T05:30:42.073Z,7.70
2019-02-28T05:33:10.881Z,7.80
2019-02-28T05:35:39.908Z,7.80
2019-02-28T05:38:08.664Z,7.90
2019-02-28T05:40:41.416Z,7.90
2019-02-28T05:43:08.534Z,7.80
2019-02-28T05:45:37.383Z,7.80
2019-02-28T05:48:06.479Z,7.70
2019-02-28T05:50:35.471Z,7.80
2019-02-28T05:53:06.298Z,7.80
2019-02-28T05:55:39.280Z,7.80
2019-02-28T05:58:08.324Z,7.90
2019-02-28T06:00:37.772Z,7.90
2019-02-28T06:03:06.631Z,7.90
2019-02-28T06:05:35.575Z,8.00
2019-02-28T06:08:04.691Z,8.10
2019-02-28T06:10:33.744Z,8.20
2019-02-28T06:13:02.808Z,8.10
2019-02-28T06:15:34.280Z,8.10
2019-02-28T06:18:04.400Z,8.10
2019-02-28T06:20:33.212Z,8.20
2019-02-28T06:23:02.333Z,8.10
2019-02-28T06:25:31.222Z,8.10
2019-02-28T06:28:00.110Z,8.10
2019-02-28T06:30:31.275Z,8.10
2019-02-28T06:33:00.185Z,8.20
2019-02-28T06:35:28.936Z,8.20
2019-02-28T06:37:57.785Z,8.20
2019-02-28T06:40:26.684Z,8.20
2019-02-28T06:42:55.934Z,8.20
2019-02-28T06:45:24.855Z,8.20
2019-02-28T06:47:53.611Z,8.20
2019-02-28T06:50:22.499Z,8.20
2019-02-28T06:52:51.371Z,8.20
2019-02-28T06:55:23.067Z,8.30
2019-02-28T06:57:51.990Z,8.40
2019-02-28T07:00:21.139Z,8.40
2019-02-28T07:02:50.323Z,8.60
2019-02-28T07:05:24.434Z,9.00
2019-02-28T07:07:50.317Z,9.40
2019-02-28T07:10:19.143Z,9.60
2019-02-28T07:12:48.003Z,9.50
2019-02-28T07:15:16.948Z,9.80
2019-02-28T07:17:47.503Z,10.40
2019-02-28T07:20:16.680Z,10.20
2019-02-28T07:22:45.454Z,10.00
2019-02-28T07:25:14.352Z,9.90
2019-02-28T07:27:43.235Z,9.90
2019-02-28T07:30:17.453Z,9.80
2019-02-28T07:32:44.472Z,9.80
2019-02-28T07:35:13.379Z,9.70
2019-02-28T07:37:42.316Z,9.80
2019-02-28T07:40:15.502Z,9.80
2019-02-28T07:42:42.542Z,9.90
2019-02-28T07:45:12.207Z,9.90
2019-02-28T07:47:41.102Z,10.00
2019-02-28T07:50:10.742Z,10.00
2019-02-28T07:52:39.627Z,10.10
2019-02-28T07:55:09.589Z,10.10
2019-02-28T07:57:38.467Z,10.20
2019-02-28T08:00:17.143Z,10.20
2019-02-28T08:02:41.199Z,10.20
2019-02-28T08:05:10.362Z,10.20
2019-02-28T08:07:39.569Z,10.20
2019-02-28T08:10:12.807Z,10.20
2019-02-28T08:12:41.187Z,10.30
2019-02-28T08:15:21.069Z,10.40
2019-02-28T08:17:46.699Z,10.40
2019-02-28T08:20:16.242Z,10.50
2019-02-28T08:22:45.343Z,10.70
2019-02-28T08:25:14.251Z,10.70
2019-02-28T08:27:43.574Z,10.80
2019-02-28T08:30:16.302Z,10.90
2019-02-28T08:32:47.068Z,11.00
2019-02-28T08:35:15.711Z,11.20
2019-02-28T08:37:44.501Z,11.40
2019-02-28T08:40:15.641Z,12.10
2019-02-28T08:42:45.182Z,12.80
2019-02-28T08:45:14.546Z,13.40
2019-02-28T08:47:43.491Z,13.90
2019-02-28T08:50:18.915Z,14.30
2019-02-28T08:52:45.836Z,14.70
2019-02-28T08:55:15.099Z,15.40
2019-02-28T08:57:43.922Z,15.70
2019-02-28T09:00:15.623Z,16.00
2019-02-28T09:02:44.622Z,15.80
2019-02-28T09:05:13.889Z,15.70
2019-02-28T09:07:43.039Z,16.30
2019-02-28T09:10:14.751Z,16.30
2019-02-28T09:12:43.928Z,16.40
2019-02-28T09:15:13.774Z,15.90
2019-02-28T09:17:42.675Z,15.40
2019-02-28T09:20:11.420Z,15.80
2019-02-28T09:22:40.713Z,15.40
2019-02-28T09:25:11.211Z,15.00
2019-02-28T09:27:40.258Z,15.00
2019-02-28T09:30:13.402Z,15.50
2019-02-28T09:32:42.157Z,15.50
2019-02-28T09:35:14.332Z,15.30
2019-02-28T09:37:41.579Z,15.30
2019-02-28T09:40:12.352Z,15.40
2019-02-28T09:42:41.135Z,15.80
2019-02-28T09:45:13.129Z,16.20
2019-02-28T09:47:42.049Z,16.20
2019-02-28T09:50:13.352Z,16.10
2019-02-28T09:52:42.637Z,16.30
2019-02-28T09:55:11.970Z,15.40
2019-02-28T09:57:40.830Z,15.80
2019-02-28T10:00:14.726Z,15.60
2019-02-28T10:02:44.000Z,15.90
2019-02-28T10:05:14.313Z,15.90
2019-02-28T10:07:43.247Z,16.20
2019-02-28T10:10:17.345Z,16.40
2019-02-28T10:12:45.091Z,16.50
2019-02-28T10:15:16.137Z,16.70
2019-02-28T10:17:45.003Z,17.00
2019-02-28T10:20:16.452Z,17.40
2019-02-28T10:22:47.305Z,17.60
2019-02-28T10:25:16.548Z,17.10
2019-02-28T10:27:45.494Z,17.20
2019-02-28T10:30:16.794Z,16.90
2019-02-28T10:32:45.692Z,16.80
2019-02-28T10:35:14.877Z,16.30
2019-02-28T10:37:43.704Z,16.50
2019-02-28T10:40:17.942Z,16.50
2019-02-28T10:42:45.571Z,16.30
2019-02-28T10:45:14.948Z,16.40
2019-02-28T10:47:43.736Z,16.50
2019-02-28T10:50:14.943Z,16.70
2019-02-28T10:52:43.858Z,17.40
2019-02-28T10:55:12.979Z,17.40
2019-02-28T10:57:41.850Z,16.90
2019-02-28T11:00:14.091Z,16.50
2019-02-28T11:02:43.159Z,16.30
2019-02-28T11:05:18.840Z,16.80
2019-02-28T11:07:48.564Z,17.10
2019-02-28T11:10:17.531Z,17.40
2019-02-28T11:12:46.522Z,17.30
2019-02-28T11:15:18.682Z,17.10
2019-02-28T11:17:47.453Z,15.80
2019-02-28T11:20:22.259Z,15.40
2019-02-28T11:22:47.185Z,15.70
2019-02-28T11:25:16.871Z,16.10
2019-02-28T11:27:45.909Z,16.10
2019-02-28T11:30:16.061Z,16.20
2019-02-28T11:32:44.951Z,16.00
2019-02-28T11:35:14.234Z,16.20
2019-02-28T11:37:46.005Z,16.10
2019-02-28T11:40:13.917Z,16.40
2019-02-28T11:42:42.730Z,16.30
2019-02-28T11:45:14.345Z,16.00
2019-02-28T11:47:43.441Z,15.70
2019-02-28T11:50:12.687Z,16.00
2019-02-28T11:52:41.988Z,15.90
2019-02-28T11:55:11.610Z,16.10
2019-02-28T11:57:41.246Z,16.40
2019-02-28T12:00:21.747Z,16.70
2019-02-28T12:02:53.496Z,16.70
2019-02-28T12:05:21.432Z,16.70
2019-02-28T12:07:50.486Z,17.10
2019-02-28T12:10:19.981Z,16.60
2019-02-28T12:12:48.888Z,16.10
2019-02-28T12:15:18.803Z,15.90
2019-02-28T12:17:47.553Z,15.50
2019-02-28T12:20:16.716Z,15.30
2019-02-28T12:22:49.368Z,15.10
2019-02-28T12:25:17.546Z,14.70
2019-02-28T12:27:46.556Z,14.70
2019-02-28T12:30:18.790Z,14.70
2019-02-28T12:32:47.673Z,14.80
2019-02-28T12:35:16.672Z,14.80
2019-02-28T12:37:45.589Z,14.70
2019-02-28T12:40:16.475Z,15.10
2019-02-28T12:42:45.532Z,15.60
2019-02-28T12:45:17.107Z,15.80
2019-02-28T12:47:45.974Z,15.80
2019-02-28T12:50:15.416Z,16.00
2019-02-28T12:52:48.990Z,16.00
2019-02-28T12:55:15.787Z,16.10
2019-02-28T12:57:44.919Z,16.00
2019-02-28T13:00:16.209Z,16.00
2019-02-28T13:02:47.078Z,16.00
2019-02-28T13:05:16.182Z,16.40
2019-02-28T13:07:45.066Z,16.30
2019-02-28T13:10:15.624Z,15.70
2019-02-28T13:12:48.719Z,15.40
2019-02-28T13:15:16.283Z,15.50
2019-02-28T13:17:45.229Z,15.40
2019-02-28T13:20:18.982Z,15.30
2019-02-28T13:22:47.857Z,15.30
2019-02-28T13:25:19.525Z,15.20
2019-02-28T13:27:47.504Z,15.20
2019-02-28T13:30:18.231Z,15.40
2019-02-28T13:32:47.251Z,15.20
2019-02-28T13:35:18.224Z,15.50
2019-02-28T13:37:47.305Z,15.90
2019-02-28T13:40:16.305Z,16.10
2019-02-28T13:42:45.110Z,16.20
2019-02-28T13:45:22.204Z,16.50
2019-02-28T13:47:47.640Z,16.40
2019-02-28T13:50:18.268Z,16.40
2019-02-28T13:52:52.339Z,15.80
2019-02-28T13:55:20.122Z,15.60
2019-02-28T13:57:49.010Z,15.40
2019-02-28T14:00:22.754Z,15.10
2019-02-28T14:02:53.543Z,14.80
2019-02-28T14:05:22.507Z,14.80
2019-02-28T14:07:51.289Z,14.90
2019-02-28T14:10:20.388Z,15.20
2019-02-28T14:12:49.156Z,14.90
2019-02-28T14:15:20.201Z,14.80
2019-02-28T14:17:49.364Z,14.40
2019-02-28T14:20:18.369Z,14.40
2019-02-28T14:22:47.449Z,14.20
2019-02-28T14:25:17.940Z,14.30
2019-02-28T14:27:46.728Z,14.40
2019-02-28T14:30:15.515Z,14.50
2019-02-28T14:32:45.525Z,14.50
2019-02-28T14:35:16.163Z,14.30
2019-02-28T14:37:44.961Z,13.90
2019-02-28T14:40:14.639Z,13.80
2019-02-28T14:42:44.567Z,13.90
2019-02-28T14:45:14.329Z,13.90
2019-02-28T14:47:43.626Z,13.80
2019-02-28T14:50:15.536Z,13.60
2019-02-28T14:52:43.572Z,13.40
2019-02-28T14:55:14.283Z,13.40
2019-02-28T14:57:43.084Z,13.30
2019-02-28T15:00:16.791Z,13.30
2019-02-28T15:03:04.925Z,13.20
2019-02-28T15:05:34.243Z,13.20
2019-02-28T15:08:03.349Z,13.20
2019-02-28T15:10:34.249Z,13.20
2019-02-28T15:13:04.956Z,13.10
2019-02-28T15:15:36.140Z,13.00
2019-02-28T15:18:05.285Z,13.00
2019-02-28T15:20:37.114Z,13.00
2019-02-28T15:23:06.048Z,12.90
2019-02-28T15:25:36.364Z,12.80
2019-02-28T15:28:06.567Z,12.80
2019-02-28T15:30:35.584Z,12.70
2019-02-28T15:33:06.977Z,12.60
2019-02-28T15:35:36.344Z,12.50
2019-02-28T15:38:08.782Z,12.50
2019-02-28T15:40:36.844Z,12.40
2019-02-28T15:43:05.750Z,12.30
2019-02-28T15:45:36.291Z,12.30
2019-02-28T15:48:06.315Z,12.30
2019-02-28T15:50:36.432Z,12.20
2019-02-28T15:53:07.624Z,12.20
2019-02-28T15:55:36.574Z,12.10
2019-02-28T15:58:06.979Z,12.10
2019-02-28T16:00:37.931Z,12.10
2019-02-28T16:03:09.121Z,12.10
2019-02-28T16:05:42.619Z,12.10
2019-02-28T16:08:10.387Z,12.00
2019-02-28T16:10:40.717Z,11.90
2019-02-28T16:13:09.569Z,11.90
2019-02-28T16:15:38.379Z,11.90
2019-02-28T16:18:08.675Z,11.90
2019-02-28T16:20:38.469Z,11.90
2019-02-28T16:23:07.596Z,11.90
2019-02-28T16:25:36.704Z,11.80
2019-02-28T16:28:07.770Z,11.80
2019-02-28T16:30:37.816Z,11.70
2019-02-28T16:33:06.788Z,11.70
2019-02-28T16:35:35.883Z,11.60
2019-02-28T16:38:06.388Z,11.50
2019-02-28T16:40:36.027Z,11.50
2019-02-28T16:43:05.063Z,11.50
2019-02-28T16:45:37.545Z,11.40
2019-02-28T16:48:07.557Z,11.40
2019-02-28T16:50:36.628Z,11.30
2019-02-28T16:53:05.670Z,11.20
2019-02-28T16:55:34.537Z,11.20
2019-02-28T16:58:03.455Z,11.10
2019-02-28T17:00:32.786Z,11.00
2019-02-28T17:03:04.154Z,11.00
2019-02-28T17:05:32.538Z,10.90
2019-02-28T17:08:01.472Z,10.80
2019-02-28T17:10:31.900Z,10.70
2019-02-28T17:13:26.176Z,10.60
2019-02-28T17:16:17.586Z,10.50
2019-02-28T17:18:46.679Z,10.50
2019-02-28T17:21:17.913Z,10.40
2019-02-28T17:23:45.970Z,10.30
2019-02-28T17:26:16.199Z,10.30
2019-02-28T17:29:04.301Z,10.30
2019-02-28T17:31:49.318Z,10.30
2019-02-28T17:34:23.881Z,10.30
2019-02-28T17:36:50.415Z,10.20
2019-02-28T17:39:19.231Z,10.20
2019-02-28T17:41:48.349Z,10.20
2019-02-28T17:44:48.289Z,10.20
2019-02-28T17:47:54.302Z,10.10
2019-02-28T17:50:39.378Z,10.10
2019-02-28T17:53:31.778Z,10.10
2019-02-28T17:56:45.247Z,10.10
2019-02-28T17:59:54.983Z,10.10
2019-02-28T18:03:09.857Z,10.00
2019-02-28T18:06:35.550Z,10.00
2019-02-28T18:09:54.568Z,9.90
2019-02-28T18:12:36.066Z,9.90
2019-02-28T18:15:24.075Z,9.90
2019-02-28T18:18:29.532Z,9.90
2019-02-28T18:21:17.450Z,10.00
2019-02-28T18:24:27.698Z,9.90
2019-02-28T18:27:21.465Z,9.90
2019-02-28T18:30:14.988Z,9.80
2019-02-28T18:32:45.046Z,9.80
2019-02-28T18:35:13.904Z,9.80
2019-02-28T18:37:45.447Z,9.80
2019-02-28T18:40:14.610Z,9.70
2019-02-28T18:42:43.626Z,9.70
2019-02-28T18:45:15.741Z,9.70
2019-02-28T18:47:44.641Z,9.50
2019-02-28T18:50:13.770Z,9.50
2019-02-28T18:52:42.629Z,9.40
2019-02-28T18:55:11.687Z,9.40
2019-02-28T18:57:40.575Z,9.30
2019-02-28T19:00:13.507Z,9.30
2019-02-28T19:02:45.367Z,9.30
2019-02-28T19:05:14.309Z,9.20
2019-02-28T19:07:43.182Z,9.20
2019-02-28T19:10:12.116Z,9.20
2019-02-28T19:12:41.160Z,9.10
2019-02-28T19:15:10.564Z,9.10
2019-02-28T19:17:39.432Z,9.10
2019-02-28T19:20:10.931Z,9.00
2019-02-28T19:22:39.831Z,8.90
2019-02-28T19:25:08.914Z,8.90
2019-02-28T19:27:37.868Z,8.90
2019-02-28T19:30:09.172Z,8.80
2019-02-28T19:32:38.444Z,8.90
2019-02-28T19:35:07.475Z,8.80
2019-02-28T19:37:36.452Z,8.80
2019-02-28T19:40:06.098Z,8.70
2019-02-28T19:42:35.142Z,8.60
2019-02-28T19:45:08.048Z,8.60
2019-02-28T19:47:37.155Z,8.60
2019-02-28T19:50:07.608Z,8.60
2019-02-28T19:52:36.614Z,8.50
2019-02-28T19:55:05.962Z,8.50
2019-02-28T19:57:34.750Z,8.40
2019-02-28T20:00:04.429Z,8.30
2019-02-28T20:02:33.305Z,8.40
2019-02-28T20:05:02.073Z,8.40
2019-02-28T20:07:30.802Z,8.40
2019-02-28T20:09:59.585Z,8.40
2019-02-28T20:12:28.395Z,8.30
2019-02-28T20:14:57.343Z,8.30
2019-02-28T20:17:26.151Z,8.30
2019-02-28T20:19:55.000Z,8.30
2019-02-28T20:22:23.918Z,8.30
2019-02-28T20:24:52.801Z,8.30
2019-02-28T20:27:21.913Z,8.20
2019-02-28T20:29:55.150Z,8.20
2019-02-28T20:32:21.255Z,8.30
2019-02-28T20:34:50.048Z,8.30
2019-02-28T20:37:18.973Z,8.30
2019-02-28T20:39:48.015Z,8.40
2019-02-28T20:42:17.116Z,8.40
2019-02-28T20:44:45.972Z,8.40
2019-02-28T20:47:14.765Z,8.30
2019-02-28T20:49:43.862Z,8.30
2019-02-28T20:52:12.871Z,8.20
2019-02-28T20:54:41.808Z,8.20
2019-02-28T20:57:10.961Z,8.20
2019-02-28T20:59:39.821Z,8.20
2019-02-28T21:02:09.144Z,8.20
2019-02-28T21:04:37.924Z,8.20
2019-02-28T21:07:06.925Z,8.20
2019-02-28T21:09:44.608Z,8.20
2019-02-28T21:12:07.926Z,8.20
2019-02-28T21:14:37.056Z,8.20
2019-02-28T21:17:06.231Z,8.10
2019-02-28T21:19:35.340Z,8.00
2019-02-28T21:22:04.095Z,7.90
2019-02-28T21:24:32.859Z,7.90
2019-02-28T21:27:01.680Z,7.90
2019-02-28T21:29:30.471Z,7.90
2019-02-28T21:31:59.600Z,7.90
2019-02-28T21:34:28.638Z,7.80
2019-02-28T21:36:57.506Z,7.70
2019-02-28T21:39:26.515Z,7.70
2019-02-28T21:41:55.257Z,7.60
2019-02-28T21:44:24.351Z,7.50
2019-02-28T21:46:53.130Z,7.60
2019-02-28T21:49:22.156Z,7.60
2019-02-28T21:51:50.952Z,7.60
2019-02-28T21:54:19.762Z,7.60
2019-02-28T21:56:48.618Z,7.60
2019-02-28T21:59:17.490Z,7.60
2019-02-28T22:01:48.103Z,7.60
2019-02-28T22:04:17.187Z,7.60
2019-02-28T22:06:46.281Z,7.70
2019-02-28T22:09:15.104Z,7.80
2019-02-28T22:11:43.904Z,7.90
2019-02-28T22:14:12.999Z,7.80
2019-02-28T22:16:42.104Z,7.90
2019-02-28T22:19:10.952Z,7.90
2019-02-28T22:21:40.436Z,7.90
2019-02-28T22:24:09.278Z,7.90
2019-02-28T22:26:38.055Z,7.90
2019-02-28T22:29:06.848Z,7.90
2019-02-28T22:31:45.645Z,7.90
2019-02-28T22:34:20.758Z,7.90
2019-02-28T22:36:49.755Z,7.80
2019-02-28T22:39:18.760Z,7.70
2019-02-28T22:41:47.533Z,7.70
2019-02-28T22:44:16.404Z,7.70
2019-02-28T22:46:45.449Z,7.60
2019-02-28T22:49:14.860Z,7.50
2019-02-28T22:51:43.652Z,7.50
2019-02-28T22:54:12.482Z,7.50
2019-02-28T22:56:41.363Z,7.50
2019-02-28T22:59:10.171Z,7.50
2019-02-28T23:01:39.556Z,7.40
2019-02-28T23:04:08.439Z,7.40
2019-02-28T23:06:37.233Z,7.40
2019-02-28T23:09:07.111Z,7.40
2019-02-28T23:11:35.932Z,7.50
2019-02-28T23:14:05.168Z,7.50
2019-02-28T23:16:34.182Z,7.50
2019-02-28T23:19:02.984Z,7.50
2019-02-28T23:21:31.737Z,7.50
2019-02-28T23:24:00.764Z,7.50
2019-02-28T23:26:29.632Z,7.60
2019-02-28T23:29:06.505Z,7.60
2019-02-28T23:32:31.431Z,7.60
2019-02-28T23:35:00.240Z,7.70
2019-02-28T23:37:29.007Z,7.70
2019-02-28T23:39:57.803Z,7.80
2019-02-28T23:42:26.559Z,7.80
2019-02-28T23:44:55.347Z,7.80
2019-02-28T23:47:24.209Z,7.90
2019-02-28T23:49:52.963Z,7.90
2019-02-28T23:52:22.296Z,8.00
2019-02-28T23:54:51.080Z,8.00
2019-02-28T23:57:19.914Z,8.10
2019-02-28T23:59:49.159Z,8.10
